Farmington Hills, Michigan
Current Conditions -  °F | °C
As of 12:59 PM on Thursday 29 Jan 2015 (Local Time) from KVLL Reporting Station
Overcast Overcast  
Wind Chill: 35°   Ceiling: 2700
Heat Index: 35°   Visibility: 10mi
Dew Point: 25°   Wind: 3mph
Humidity: 67%   Direction: 260°W
Pressure: 29.73"   Gusts: NA
Location:  42.4647°N, 83.3764°W
Report Text: KVLL 291759Z AUTO 26003KT 10SM OVC027 02/M04 A2973 RMK AO2 T00151041 10015 21010
Loading
Personal Weather Stations






























Interactive Weather Map New forecast layout! Learn more

10-Day Weather Forecast

Advertisements
Track Severe Weather on mobile